sensor_id;sensor_type;location;lat;lon;timestamp;pressure;altitude;pressure_sealevel;temperature;humidity
29417;BME280;28421;51.030;4.006;2024-01-07T00:01:05;101642.63;;;2.58;100.00
29417;BME280;28421;51.030;4.006;2024-01-07T00:03:33;101662.00;;;2.85;100.00
29417;BME280;28421;51.030;4.006;2024-01-07T00:05:58;101684.13;;;2.86;100.00
29417;BME280;28421;51.030;4.006;2024-01-07T00:08:24;101665.28;;;2.76;100.00
29417;BME280;28421;51.030;4.006;2024-01-07T00:11:14;101665.00;;;2.93;100.00
29417;BME280;28421;51.030;4.006;2024-01-07T00:13:42;101712.28;;;3.15;100.00
29417;BME280;28421;51.030;4.006;2024-01-07T00:16:08;101672.59;;;2.99;100.00
29417;BME280;28421;51.030;4.006;2024-01-07T00:18:33;101677.16;;;3.10;100.00
29417;BME280;28421;51.030;4.006;2024-01-07T00:20:59;101685.78;;;3.14;100.00
29417;BME280;28421;51.030;4.006;2024-01-07T00:23:24;101711.09;;;3.19;100.00
29417;BME280;28421;51.030;4.006;2024-01-07T00:25:52;101705.84;;;3.05;100.00
29417;BME280;28421;51.030;4.006;2024-01-07T00:28:17;101715.09;;;2.99;100.00
29417;BME280;28421;51.030;4.006;2024-01-07T00:30:43;101669.69;;;2.90;100.00
29417;BME280;28421;51.030;4.006;2024-01-07T00:33:11;101655.16;;;2.68;100.00
29417;BME280;28421;51.030;4.006;2024-01-07T00:36:09;101655.22;;;2.81;100.00
29417;BME280;28421;51.030;4.006;2024-01-07T00:38:34;101690.72;;;2.93;100.00
29417;BME280;28421;51.030;4.006;2024-01-07T00:41:00;101674.59;;;2.69;100.00
29417;BME280;28421;51.030;4.006;2024-01-07T00:43:25;101694.63;;;2.74;100.00
29417;BME280;28421;51.030;4.006;2024-01-07T00:45:51;101692.69;;;2.77;100.00
29417;BME280;28421;51.030;4.006;2024-01-07T00:48:16;101687.22;;;2.65;100.00
29417;BME280;28421;51.030;4.006;2024-01-07T00:50:42;101681.19;;;2.63;100.00
29417;BME280;28421;51.030;4.006;2024-01-07T00:53:08;101694.25;;;2.66;100.00
29417;BME280;28421;51.030;4.006;2024-01-07T00:55:33;101672.41;;;2.48;100.00
29417;BME280;28421;51.030;4.006;2024-01-07T00:58:01;101720.66;;;2.82;100.00
29417;BME280;28421;51.030;4.006;2024-01-07T01:00:26;101692.75;;;2.62;100.00
29417;BME280;28421;51.030;4.006;2024-01-07T01:02:53;101710.03;;;2.82;100.00
29417;BME280;28421;51.030;4.006;2024-01-07T01:05:18;101686.84;;;2.71;100.00
29417;BME280;28421;51.030;4.006;2024-01-07T01:07:44;101702.09;;;2.82;100.00
29417;BME280;28421;51.030;4.006;2024-01-07T01:10:09;101721.91;;;2.77;100.00
29417;BME280;28421;51.030;4.006;2024-01-07T01:12:35;101711.09;;;2.80;100.00
29417;BME280;28421;51.030;4.006;2024-01-07T01:15:01;101704.34;;;2.61;100.00
29417;BME280;28421;51.030;4.006;2024-01-07T01:17:26;101719.44;;;2.73;100.00
29417;BME280;28421;51.030;4.006;2024-01-07T01:19:52;101734.69;;;2.84;100.00
29417;BME280;28421;51.030;4.006;2024-01-07T01:22:17;101742.19;;;2.78;100.00
29417;BME280;28421;51.030;4.006;2024-01-07T01:24:43;101700.31;;;2.68;100.00
29417;BME280;28421;51.030;4.006;2024-01-07T01:27:11;101701.59;;;2.48;100.00
29417;BME280;28421;51.030;4.006;2024-01-07T01:29:38;101713.94;;;2.49;100.00
29417;BME280;28421;51.030;4.006;2024-01-07T01:32:05;101707.78;;;2.49;100.00
29417;BME280;28421;51.030;4.006;2024-01-07T01:34:31;101721.00;;;2.63;100.00
29417;BME280;28421;51.030;4.006;2024-01-07T01:36:57;101739.47;;;2.65;100.00
29417;BME280;28421;51.030;4.006;2024-01-07T01:39:22;101716.84;;;2.59;100.00
29417;BME280;28421;51.030;4.006;2024-01-07T01:41:48;101743.19;;;2.62;100.00
29417;BME280;28421;51.030;4.006;2024-01-07T01:44:13;101734.28;;;2.63;100.00
29417;BME280;28421;51.030;4.006;2024-01-07T01:46:39;101732.34;;;2.38;100.00
29417;BME280;28421;51.030;4.006;2024-01-07T01:49:05;101690.59;;;2.13;100.00
29417;BME280;28421;51.030;4.006;2024-01-07T01:51:31;101731.31;;;2.41;100.00
29417;BME280;28421;51.030;4.006;2024-01-07T01:53:58;101731.88;;;2.46;100.00
29417;BME280;28421;51.030;4.006;2024-01-07T01:56:27;101756.72;;;2.45;100.00
29417;BME280;28421;51.030;4.006;2024-01-07T01:58:53;101734.75;;;2.29;100.00
29417;BME280;28421;51.030;4.006;2024-01-07T02:01:19;101743.06;;;2.22;100.00
29417;BME280;28421;51.030;4.006;2024-01-07T02:03:45;101718.53;;;2.19;100.00
29417;BME280;28421;51.030;4.006;2024-01-07T02:06:11;101730.00;;;2.19;100.00
29417;BME280;28421;51.030;4.006;2024-01-07T02:08:38;101752.00;;;2.21;100.00
29417;BME280;28421;51.030;4.006;2024-01-07T02:11:23;101718.34;;;1.93;100.00
29417;BME280;28421;51.030;4.006;2024-01-07T02:13:49;101775.84;;;2.36;100.00
29417;BME280;28421;51.030;4.006;2024-01-07T02:16:15;101757.28;;;2.21;100.00
29417;BME280;28421;51.030;4.006;2024-01-07T02:18:43;101772.53;;;2.46;100.00
29417;BME280;28421;51.030;4.006;2024-01-07T02:21:09;101783.31;;;2.43;100.00
29417;BME280;28421;51.030;4.006;2024-01-07T02:23:35;101740.72;;;1.89;100.00
29417;BME280;28421;51.030;4.006;2024-01-07T02:26:00;101757.47;;;2.18;100.00
29417;BME280;28421;51.030;4.006;2024-01-07T02:28:26;101797.38;;;2.31;100.00
29417;BME280;28421;51.030;4.006;2024-01-07T02:30:51;101767.34;;;2.16;100.00
29417;BME280;28421;51.030;4.006;2024-01-07T02:33:17;101778.13;;;2.13;100.00
29417;BME280;28421;51.030;4.006;2024-01-07T02:35:42;101752.47;;;2.14;100.00
29417;BME280;28421;51.030;4.006;2024-01-07T02:38:08;101797.00;;;2.37;100.00
29417;BME280;28421;51.030;4.006;2024-01-07T02:40:33;101800.88;;;2.32;100.00
29417;BME280;28421;51.030;4.006;2024-01-07T02:42:59;101781.06;;;2.23;100.00
29417;BME280;28421;51.030;4.006;2024-01-07T02:45:24;101763.47;;;2.08;100.00
29417;BME280;28421;51.030;4.006;2024-01-07T02:47:50;101757.59;;;2.17;100.00
29417;BME280;28421;51.030;4.006;2024-01-07T02:50:15;101777.09;;;2.30;100.00
29417;BME280;28421;51.030;4.006;2024-01-07T02:52:41;101765.44;;;1.90;100.00
29417;BME280;28421;51.030;4.006;2024-01-07T02:55:08;101743.84;;;1.96;100.00
29417;BME280;28421;51.030;4.006;2024-01-07T02:57:33;101768.19;;;2.17;100.00
29417;BME280;28421;51.030;4.006;2024-01-07T02:59:59;101793.88;;;2.16;100.00
29417;BME280;28421;51.030;4.006;2024-01-07T03:02:24;101777.56;;;2.22;100.00
29417;BME280;28421;51.030;4.006;2024-01-07T03:04:50;101812.72;;;2.40;100.00
29417;BME280;28421;51.030;4.006;2024-01-07T03:07:15;101784.13;;;2.17;100.00
29417;BME280;28421;51.030;4.006;2024-01-07T03:09:41;101783.44;;;1.99;100.00
29417;BME280;28421;51.030;4.006;2024-01-07T03:12:06;101786.66;;;2.18;100.00
29417;BME280;28421;51.030;4.006;2024-01-07T03:14:32;101819.94;;;2.38;100.00
29417;BME280;28421;51.030;4.006;2024-01-07T03:16:57;101795.19;;;2.23;100.00
29417;BME280;28421;51.030;4.006;2024-01-07T03:19:23;101781.28;;;1.91;100.00
29417;BME280;28421;51.030;4.006;2024-01-07T03:21:49;101839.50;;;2.07;100.00
29417;BME280;28421;51.030;4.006;2024-01-07T03:24:14;101830.81;;;2.05;100.00
29417;BME280;28421;51.030;4.006;2024-01-07T03:26:40;101811.00;;;1.96;100.00
29417;BME280;28421;51.030;4.006;2024-01-07T03:29:05;101820.66;;;1.97;100.00
29417;BME280;28421;51.030;4.006;2024-01-07T03:31:31;101839.81;;;2.17;100.00
29417;BME280;28421;51.030;4.006;2024-01-07T03:33:56;101848.25;;;1.95;100.00
29417;BME280;28421;51.030;4.006;2024-01-07T03:36:22;101842.75;;;2.12;100.00
29417;BME280;28421;51.030;4.006;2024-01-07T03:38:48;101818.97;;;1.96;100.00
29417;BME280;28421;51.030;4.006;2024-01-07T03:41:17;101844.06;;;2.19;100.00
29417;BME280;28421;51.030;4.006;2024-01-07T03:43:44;101835.09;;;2.08;100.00
29417;BME280;28421;51.030;4.006;2024-01-07T03:46:10;101819.13;;;1.93;100.00
29417;BME280;28421;51.030;4.006;2024-01-07T03:48:35;101784.56;;;1.81;100.00
29417;BME280;28421;51.030;4.006;2024-01-07T03:51:01;101814.41;;;1.84;100.00
29417;BME280;28421;51.030;4.006;2024-01-07T03:53:26;101836.47;;;1.99;100.00
29417;BME280;28421;51.030;4.006;2024-01-07T03:55:52;101867.22;;;2.17;100.00
29417;BME280;28421;51.030;4.006;2024-01-07T03:58:17;101834.84;;;1.82;100.00
29417;BME280;28421;51.030;4.006;2024-01-07T04:00:43;101851.47;;;2.00;100.00
29417;BME280;28421;51.030;4.006;2024-01-07T04:03:08;101805.88;;;1.49;100.00
29417;BME280;28421;51.030;4.006;2024-01-07T04:05:33;101840.63;;;1.74;100.00
29417;BME280;28421;51.030;4.006;2024-01-07T04:08:01;101824.19;;;1.54;100.00
29417;BME280;28421;51.030;4.006;2024-01-07T04:10:26;101822.69;;;1.64;100.00
29417;BME280;28421;51.030;4.006;2024-01-07T04:12:52;101854.66;;;1.91;100.00
29417;BME280;28421;51.030;4.006;2024-01-07T04:15:17;101871.56;;;2.04;100.00
29417;BME280;28421;51.030;4.006;2024-01-07T04:17:43;101833.34;;;1.92;100.00
29417;BME280;28421;51.030;4.006;2024-01-07T04:20:12;101858.28;;;1.74;100.00
29417;BME280;28421;51.030;4.006;2024-01-07T04:22:38;101852.50;;;1.67;100.00
29417;BME280;28421;51.030;4.006;2024-01-07T04:25:04;101852.47;;;1.83;100.00
29417;BME280;28421;51.030;4.006;2024-01-07T04:27:34;101824.94;;;1.56;100.00
29417;BME280;28421;51.030;4.006;2024-01-07T04:30:00;101853.09;;;1.72;100.00
29417;BME280;28421;51.030;4.006;2024-01-07T04:32:26;101837.59;;;1.81;100.00
29417;BME280;28421;51.030;4.006;2024-01-07T04:34:51;101863.06;;;1.83;100.00
29417;BME280;28421;51.030;4.006;2024-01-07T04:37:17;101857.00;;;1.81;100.00
29417;BME280;28421;51.030;4.006;2024-01-07T04:39:42;101837.59;;;1.81;100.00
29417;BME280;28421;51.030;4.006;2024-01-07T04:42:08;101862.97;;;1.85;100.00
29417;BME280;28421;51.030;4.006;2024-01-07T04:44:34;101855.03;;;1.85;100.00
29417;BME280;28421;51.030;4.006;2024-01-07T04:46:59;101886.28;;;1.94;100.00
29417;BME280;28421;51.030;4.006;2024-01-07T04:49:25;101863.25;;;1.80;100.00
29417;BME280;28421;51.030;4.006;2024-01-07T04:51:50;101872.19;;;1.93;100.00
29417;BME280;28421;51.030;4.006;2024-01-07T04:54:15;101872.84;;;1.83;100.00
29417;BME280;28421;51.030;4.006;2024-01-07T04:56:41;101849.69;;;1.70;100.00
29417;BME280;28421;51.030;4.006;2024-01-07T04:59:06;101886.63;;;2.04;100.00
29417;BME280;28421;51.030;4.006;2024-01-07T05:01:32;101859.19;;;1.74;100.00
29417;BME280;28421;51.030;4.006;2024-01-07T05:03:59;101877.41;;;1.95;100.00
29417;BME280;28421;51.030;4.006;2024-01-07T05:06:24;101830.34;;;1.68;100.00
29417;BME280;28421;51.030;4.006;2024-01-07T05:08:50;101883.88;;;2.05;100.00
29417;BME280;28421;51.030;4.006;2024-01-07T05:11:15;101863.81;;;1.85;100.00
29417;BME280;28421;51.030;4.006;2024-01-07T05:13:42;101898.94;;;2.19;100.00
29417;BME280;28421;51.030;4.006;2024-01-07T05:16:08;101866.00;;;1.79;100.00
29417;BME280;28421;51.030;4.006;2024-01-07T05:18:33;101908.69;;;2.04;100.00
29417;BME280;28421;51.030;4.006;2024-01-07T05:20:59;101887.13;;;1.94;100.00
29417;BME280;28421;51.030;4.006;2024-01-07T05:23:24;101881.19;;;1.91;100.00
29417;BME280;28421;51.030;4.006;2024-01-07T05:25:50;101908.88;;;2.15;100.00
29417;BME280;28421;51.030;4.006;2024-01-07T05:28:15;101908.09;;;1.99;100.00
29417;BME280;28421;51.030;4.006;2024-01-07T05:30:44;101890.19;;;2.03;100.00
29417;BME280;28421;51.030;4.006;2024-01-07T05:33:10;101898.00;;;1.76;100.00
29417;BME280;28421;51.030;4.006;2024-01-07T05:35:35;101904.59;;;1.68;100.00
29417;BME280;28421;51.030;4.006;2024-01-07T05:38:01;101920.47;;;1.84;100.00
29417;BME280;28421;51.030;4.006;2024-01-07T05:40:26;101890.31;;;1.71;100.00
29417;BME280;28421;51.030;4.006;2024-01-07T05:42:52;101910.00;;;1.67;100.00
29417;BME280;28421;51.030;4.006;2024-01-07T05:45:17;101945.81;;;2.04;100.00
29417;BME280;28421;51.030;4.006;2024-01-07T05:47:43;101904.09;;;1.62;100.00
29417;BME280;28421;51.030;4.006;2024-01-07T05:50:08;101917.25;;;1.63;100.00
29417;BME280;28421;51.030;4.006;2024-01-07T05:52:34;101930.78;;;1.43;100.00
29417;BME280;28421;51.030;4.006;2024-01-07T05:55:00;101952.84;;;1.59;100.00
29417;BME280;28421;51.030;4.006;2024-01-07T05:57:25;101948.50;;;1.58;100.00
29417;BME280;28421;51.030;4.006;2024-01-07T05:59:51;101926.69;;;1.37;100.00
29417;BME280;28421;51.030;4.006;2024-01-07T06:02:17;101962.66;;;1.57;100.00
29417;BME280;28421;51.030;4.006;2024-01-07T06:04:43;101948.28;;;1.61;100.00
29417;BME280;28421;51.030;4.006;2024-01-07T06:07:08;101932.44;;;1.45;100.00
29417;BME280;28421;51.030;4.006;2024-01-07T06:09:34;101916.69;;;1.42;100.00
29417;BME280;28421;51.030;4.006;2024-01-07T06:12:00;101944.19;;;1.56;100.00
29417;BME280;28421;51.030;4.006;2024-01-07T06:14:26;101938.06;;;1.39;100.00
29417;BME280;28421;51.030;4.006;2024-01-07T06:16:51;101969.16;;;1.52;100.00
29417;BME280;28421;51.030;4.006;2024-01-07T06:19:17;101946.78;;;1.41;100.00
29417;BME280;28421;51.030;4.006;2024-01-07T06:21:43;101981.41;;;1.54;100.00
29417;BME280;28421;51.030;4.006;2024-01-07T06:24:09;101998.84;;;1.58;100.00
29417;BME280;28421;51.030;4.006;2024-01-07T06:26:35;101993.19;;;1.80;100.00
29417;BME280;28421;51.030;4.006;2024-01-07T06:29:00;101992.66;;;1.73;100.00
29417;BME280;28421;51.030;4.006;2024-01-07T06:31:26;101997.53;;;1.81;100.00
29417;BME280;28421;51.030;4.006;2024-01-07T06:33:52;101988.22;;;1.74;100.00
29417;BME280;28421;51.030;4.006;2024-01-07T06:36:17;101973.34;;;1.56;100.00
29417;BME280;28421;51.030;4.006;2024-01-07T06:38:43;102017.38;;;1.74;100.00
29417;BME280;28421;51.030;4.006;2024-01-07T06:41:12;102005.31;;;1.68;100.00
29417;BME280;28421;51.030;4.006;2024-01-07T06:43:38;102001.66;;;1.87;100.00
29417;BME280;28421;51.030;4.006;2024-01-07T06:46:04;101982.75;;;1.61;100.00
29417;BME280;28421;51.030;4.006;2024-01-07T06:48:29;102031.75;;;1.70;100.00
29417;BME280;28421;51.030;4.006;2024-01-07T06:50:55;101975.16;;;1.55;100.00
29417;BME280;28421;51.030;4.006;2024-01-07T06:53:20;101987.63;;;1.69;100.00
29417;BME280;28421;51.030;4.006;2024-01-07T06:55:47;101995.16;;;1.45;100.00
29417;BME280;28421;51.030;4.006;2024-01-07T06:58:13;101993.78;;;1.38;100.00
29417;BME280;28421;51.030;4.006;2024-01-07T07:00:38;101999.44;;;1.63;100.00
29417;BME280;28421;51.030;4.006;2024-01-07T07:03:04;102007.56;;;1.60;100.00
29417;BME280;28421;51.030;4.006;2024-01-07T07:05:30;102037.91;;;1.86;100.00
29417;BME280;28421;51.030;4.006;2024-01-07T07:07:56;102046.78;;;2.01;100.00
29417;BME280;28421;51.030;4.006;2024-01-07T07:10:22;102057.31;;;2.03;100.00
29417;BME280;28421;51.030;4.006;2024-01-07T07:12:47;102002.09;;;1.63;100.00
29417;BME280;28421;51.030;4.006;2024-01-07T07:15:13;102035.69;;;1.63;100.00
29417;BME280;28421;51.030;4.006;2024-01-07T07:17:38;102039.88;;;1.83;100.00
29417;BME280;28421;51.030;4.006;2024-01-07T07:20:05;102054.16;;;1.96;100.00
29417;BME280;28421;51.030;4.006;2024-01-07T07:22:31;102048.06;;;1.94;100.00
29417;BME280;28421;51.030;4.006;2024-01-07T07:24:57;102081.88;;;1.90;100.00
29417;BME280;28421;51.030;4.006;2024-01-07T07:27:22;102041.69;;;1.66;100.00
29417;BME280;28421;51.030;4.006;2024-01-07T07:29:48;102062.28;;;1.77;100.00
29417;BME280;28421;51.030;4.006;2024-01-07T07:32:14;102056.72;;;1.82;100.00
29417;BME280;28421;51.030;4.006;2024-01-07T07:34:39;102072.88;;;1.77;100.00
29417;BME280;28421;51.030;4.006;2024-01-07T07:37:05;102092.94;;;1.83;100.00
29417;BME280;28421;51.030;4.006;2024-01-07T07:39:30;102096.25;;;1.86;100.00
29417;BME280;28421;51.030;4.006;2024-01-07T07:41:55;102032.44;;;1.42;100.00
29417;BME280;28421;51.030;4.006;2024-01-07T07:44:21;102085.22;;;1.94;100.00
29417;BME280;28421;51.030;4.006;2024-01-07T07:46:46;102074.69;;;1.92;100.00
29417;BME280;28421;51.030;4.006;2024-01-07T07:49:12;102062.72;;;1.69;100.00
29417;BME280;28421;51.030;4.006;2024-01-07T07:51:39;102124.94;;;1.95;100.00
29417;BME280;28421;51.030;4.006;2024-01-07T07:54:04;102108.16;;;1.79;100.00
29417;BME280;28421;51.030;4.006;2024-01-07T07:56:29;102096.25;;;1.70;100.00
29417;BME280;28421;51.030;4.006;2024-01-07T07:58:55;102102.00;;;1.79;100.00
29417;BME280;28421;51.030;4.006;2024-01-07T08:01:21;102100.06;;;1.65;100.00
29417;BME280;28421;51.030;4.006;2024-01-07T08:03:46;102106.34;;;1.80;100.00
29417;BME280;28421;51.030;4.006;2024-01-07T08:06:11;102126.88;;;1.76;100.00
29417;BME280;28421;51.030;4.006;2024-01-07T08:08:37;102113.59;;;1.60;100.00
29417;BME280;28421;51.030;4.006;2024-01-07T08:11:03;102093.19;;;1.45;100.00
29417;BME280;28421;51.030;4.006;2024-01-07T08:13:31;102109.84;;;1.64;100.00
29417;BME280;28421;51.030;4.006;2024-01-07T08:15:56;102093.75;;;1.67;100.00
29417;BME280;28421;51.030;4.006;2024-01-07T08:18:22;102103.59;;;1.65;100.00
29417;BME280;28421;51.030;4.006;2024-01-07T08:20:47;102144.78;;;2.04;100.00
29417;BME280;28421;51.030;4.006;2024-01-07T08:23:13;102109.94;;;1.79;100.00
29417;BME280;28421;51.030;4.006;2024-01-07T08:25:39;102129.63;;;1.74;100.00
29417;BME280;28421;51.030;4.006;2024-01-07T08:28:05;102107.88;;;1.68;100.00
29417;BME280;28421;51.030;4.006;2024-01-07T08:30:30;102111.41;;;1.84;100.00
29417;BME280;28421;51.030;4.006;2024-01-07T08:32:57;102103.94;;;1.75;100.00
29417;BME280;28421;51.030;4.006;2024-01-07T08:35:23;102122.59;;;2.05;100.00
29417;BME280;28421;51.030;4.006;2024-01-07T08:37:48;102136.44;;;1.94;100.00
29417;BME280;28421;51.030;4.006;2024-01-07T08:40:14;102132.00;;;2.11;100.00
29417;BME280;28421;51.030;4.006;2024-01-07T08:42:40;102125.59;;;1.83;100.00
29417;BME280;28421;51.030;4.006;2024-01-07T08:45:06;102126.38;;;2.01;100.00
29417;BME280;28421;51.030;4.006;2024-01-07T08:47:32;102116.63;;;2.02;100.00
29417;BME280;28421;51.030;4.006;2024-01-07T08:49:58;102094.69;;;1.98;100.00
29417;BME280;28421;51.030;4.006;2024-01-07T08:52:24;102125.31;;;2.19;100.00
29417;BME280;28421;51.030;4.006;2024-01-07T08:54:49;102152.31;;;2.12;100.00
29417;BME280;28421;51.030;4.006;2024-01-07T08:57:15;102156.41;;;2.02;100.00
29417;BME280;28421;51.030;4.006;2024-01-07T08:59:40;102143.91;;;1.88;100.00
29417;BME280;28421;51.030;4.006;2024-01-07T09:02:06;102140.22;;;1.90;100.00
29417;BME280;28421;51.030;4.006;2024-01-07T09:04:31;102175.16;;;2.14;100.00
29417;BME280;28421;51.030;4.006;2024-01-07T09:06:59;102166.56;;;1.78;100.00
29417;BME280;28421;51.030;4.006;2024-01-07T09:09:24;102177.78;;;1.83;100.00
29417;BME280;28421;51.030;4.006;2024-01-07T09:11:49;102158.78;;;1.74;100.00
29417;BME280;28421;51.030;4.006;2024-01-07T09:14:15;102173.84;;;1.90;100.00
29417;BME280;28421;51.030;4.006;2024-01-07T09:16:40;102166.69;;;1.92;100.00
29417;BME280;28421;51.030;4.006;2024-01-07T09:19:06;102180.09;;;1.89;100.00
29417;BME280;28421;51.030;4.006;2024-01-07T09:21:31;102167.50;;;1.77;100.00
29417;BME280;28421;51.030;4.006;2024-01-07T09:23:57;102201.56;;;1.84;100.00
29417;BME280;28421;51.030;4.006;2024-01-07T09:26:22;102179.69;;;1.63;100.00
29417;BME280;28421;51.030;4.006;2024-01-07T09:28:48;102187.75;;;1.78;100.00
29417;BME280;28421;51.030;4.006;2024-01-07T09:31:13;102182.66;;;1.90;100.00
29417;BME280;28421;51.030;4.006;2024-01-07T09:33:39;102212.38;;;2.13;100.00
29417;BME280;28421;51.030;4.006;2024-01-07T09:36:05;102194.16;;;1.91;100.00
29417;BME280;28421;51.030;4.006;2024-01-07T09:38:32;102196.97;;;2.04;100.00
29417;BME280;28421;51.030;4.006;2024-01-07T09:40:58;102220.28;;;1.81;100.00
29417;BME280;28421;51.030;4.006;2024-01-07T09:43:23;102220.28;;;1.81;100.00
29417;BME280;28421;51.030;4.006;2024-01-07T09:45:50;102212.47;;;1.62;100.00
29417;BME280;28421;51.030;4.006;2024-01-07T09:48:17;102235.34;;;1.81;100.00
29417;BME280;28421;51.030;4.006;2024-01-07T09:50:42;102210.06;;;1.73;100.00
29417;BME280;28421;51.030;4.006;2024-01-07T09:53:11;102214.53;;;1.73;100.00
29417;BME280;28421;51.030;4.006;2024-01-07T09:55:47;102224.28;;;1.72;100.00
29417;BME280;28421;51.030;4.006;2024-01-07T09:58:16;102232.22;;;1.72;100.00
29417;BME280;28421;51.030;4.006;2024-01-07T10:00:42;102242.75;;;1.91;100.00
29417;BME280;28421;51.030;4.006;2024-01-07T10:03:07;102225.97;;;1.91;100.00
29417;BME280;28421;51.030;4.006;2024-01-07T10:05:33;102245.19;;;1.94;100.00
29417;BME280;28421;51.030;4.006;2024-01-07T10:07:58;102233.75;;;1.94;100.00
29417;BME280;28421;51.030;4.006;2024-01-07T10:10:24;102207.97;;;1.80;100.00
29417;BME280;28421;51.030;4.006;2024-01-07T10:12:49;102211.22;;;1.85;100.00
29417;BME280;28421;51.030;4.006;2024-01-07T10:15:18;102243.66;;;1.90;100.00
29417;BME280;28421;51.030;4.006;2024-01-07T10:17:44;102254.03;;;1.95;100.00
29417;BME280;28421;51.030;4.006;2024-01-07T10:20:11;102245.94;;;1.81;100.00
29417;BME280;28421;51.030;4.006;2024-01-07T10:22:37;102264.47;;;1.98;100.00
29417;BME280;28421;51.030;4.006;2024-01-07T10:25:06;102281.78;;;2.05;100.00
29417;BME280;28421;51.030;4.006;2024-01-07T10:27:35;102222.72;;;1.68;100.00
29417;BME280;28421;51.030;4.006;2024-01-07T10:30:04;102290.50;;;2.07;100.00
29417;BME280;28421;51.030;4.006;2024-01-07T10:32:31;102234.63;;;1.77;100.00
29417;BME280;28421;51.030;4.006;2024-01-07T10:35:04;102235.25;;;1.82;100.00
29417;BME280;28421;51.030;4.006;2024-01-07T10:37:33;102260.72;;;2.02;100.00
29417;BME280;28421;51.030;4.006;2024-01-07T10:39:59;102267.50;;;2.08;100.00
29417;BME280;28421;51.030;4.006;2024-01-07T10:42:32;102218.13;;;1.72;100.00
29417;BME280;28421;51.030;4.006;2024-01-07T10:45:00;102258.00;;;1.86;100.00
29417;BME280;28421;51.030;4.006;2024-01-07T10:47:34;102292.03;;;1.78;100.00
29417;BME280;28421;51.030;4.006;2024-01-07T10:50:02;102304.25;;;1.98;100.00
29417;BME280;28421;51.030;4.006;2024-01-07T10:52:28;102300.34;;;2.05;100.00
29417;BME280;28421;51.030;4.006;2024-01-07T10:55:03;102276.03;;;1.97;100.00
29417;BME280;28421;51.030;4.006;2024-01-07T11:00:06;102301.03;;;2.09;100.00
29417;BME280;28421;51.030;4.006;2024-01-07T11:05:27;102306.66;;;2.20;100.00
29417;BME280;28421;51.030;4.006;2024-01-07T11:08:05;102276.38;;;2.07;100.00
29417;BME280;28421;51.030;4.006;2024-01-07T11:10:38;102294.59;;;2.30;100.00
29417;BME280;28421;51.030;4.006;2024-01-07T11:13:05;102258.66;;;2.07;100.00
29417;BME280;28421;51.030;4.006;2024-01-07T11:18:19;102252.81;;;1.85;100.00
29417;BME280;28421;51.030;4.006;2024-01-07T11:20:46;102228.13;;;1.67;100.00
29417;BME280;28421;51.030;4.006;2024-01-07T11:23:31;102290.69;;;2.04;100.00
29417;BME280;28421;51.030;4.006;2024-01-07T11:26:06;102250.50;;;1.79;100.00
29417;BME280;28421;51.030;4.006;2024-01-07T11:28:55;102299.41;;;2.06;100.00
29417;BME280;28421;51.030;4.006;2024-01-07T11:34:10;102275.00;;;1.99;100.00
29417;BME280;28421;51.030;4.006;2024-01-07T11:36:36;102267.00;;;1.84;100.00
29417;BME280;28421;51.030;4.006;2024-01-07T11:39:03;102292.03;;;1.78;100.00
29417;BME280;28421;51.030;4.006;2024-01-07T11:41:32;102265.53;;;1.61;100.00
29417;BME280;28421;51.030;4.006;2024-01-07T11:43:59;102262.59;;;1.67;100.00
29417;BME280;28421;51.030;4.006;2024-01-07T11:46:26;102311.84;;;1.88;100.00
29417;BME280;28421;51.030;4.006;2024-01-07T11:48:56;102308.31;;;2.05;100.00
29417;BME280;28421;51.030;4.006;2024-01-07T11:51:28;102285.34;;;1.71;100.00
29417;BME280;28421;51.030;4.006;2024-01-07T11:53:57;102311.97;;;2.03;100.00
29417;BME280;28421;51.030;4.006;2024-01-07T11:56:24;102296.78;;;1.89;100.00
29417;BME280;28421;51.030;4.006;2024-01-07T11:58:49;102250.44;;;1.45;100.00
29417;BME280;28421;51.030;4.006;2024-01-07T12:01:15;102308.41;;;1.86;100.00
29417;BME280;28421;51.030;4.006;2024-01-07T12:03:43;102286.41;;;1.84;100.00
29417;BME280;28421;51.030;4.006;2024-01-07T12:06:09;102306.50;;;2.06;100.00
29417;BME280;28421;51.030;4.006;2024-01-07T12:08:38;102306.25;;;2.10;100.00
29417;BME280;28421;51.030;4.006;2024-01-07T12:11:05;102272.50;;;1.96;100.00
29417;BME280;28421;51.030;4.006;2024-01-07T12:13:30;102284.47;;;2.21;100.00
29417;BME280;28421;51.030;4.006;2024-01-07T12:15:56;102313.31;;;2.27;100.00
29417;BME280;28421;51.030;4.006;2024-01-07T12:18:22;102282.97;;;1.99;100.00
29417;BME280;28421;51.030;4.006;2024-01-07T12:20:56;102308.19;;;2.24;100.00
29417;BME280;28421;51.030;4.006;2024-01-07T12:23:24;102260.91;;;1.82;100.00
29417;BME280;28421;51.030;4.006;2024-01-07T12:25:50;102266.22;;;1.82;100.00
29417;BME280;28421;51.030;4.006;2024-01-07T12:28:17;102292.50;;;2.19;100.00
29417;BME280;28421;51.030;4.006;2024-01-07T12:30:44;102246.88;;;1.80;100.00
29417;BME280;28421;51.030;4.006;2024-01-07T12:33:09;102299.19;;;2.27;100.00
29417;BME280;28421;51.030;4.006;2024-01-07T12:35:35;102299.34;;;2.23;100.00
29417;BME280;28421;51.030;4.006;2024-01-07T12:38:02;102280.59;;;2.11;100.00
29417;BME280;28421;51.030;4.006;2024-01-07T12:40:28;102293.03;;;2.26;100.00
29417;BME280;28421;51.030;4.006;2024-01-07T12:42:53;102305.59;;;2.22;100.00
29417;BME280;28421;51.030;4.006;2024-01-07T12:45:19;102284.97;;;2.12;100.00
29417;BME280;28421;51.030;4.006;2024-01-07T12:47:44;102316.72;;;2.13;100.00
29417;BME280;28421;51.030;4.006;2024-01-07T12:50:11;102283.63;;;2.03;100.00
29417;BME280;28421;51.030;4.006;2024-01-07T12:52:40;102308.50;;;2.18;100.00
29417;BME280;28421;51.030;4.006;2024-01-07T12:55:06;102282.28;;;1.96;100.00
29417;BME280;28421;51.030;4.006;2024-01-07T12:57:33;102305.19;;;1.97;100.00